Time;durP1;ratioP1;P1;durP2;ratioP2;P2;SDS_P1;SDS_P2;PMS_P1;PMS_P2;Temp;Humidity;BMP_temperature;BMP_pressure;BME280_temperature;BME280_humidity;BME280_pressure;Samples;Min_cycle;Max_cycle;Signal;HPM_P1;HPM_P2
2022/12/20 00:01:00;;;;;;;20.48;10.07;;;8.60;99.90;;;;;;5033706;28;20536;-73
2022/12/20 00:03:26;;;;;;;24.67;11.07;;;8.60;99.90;;;;;;5033867;28;20030;-74
2022/12/20 00:05:51;;;;;;;24.30;11.15;;;8.70;99.90;;;;;;5032685;28;20372;-74
2022/12/20 00:08:17;;;;;;;21.40;10.20;;;8.70;99.90;;;;;;5034079;28;20049;-74
2022/12/20 00:10:44;;;;;;;21.63;10.40;;;8.60;99.90;;;;;;5033667;28;20041;-74
2022/12/20 00:13:11;;;;;;;20.13;9.90;;;8.60;99.90;;;;;;5032718;28;20056;-73
2022/12/20 00:15:36;;;;;;;24.88;10.98;;;8.70;99.90;;;;;;5033414;28;20282;-74
2022/12/20 00:18:02;;;;;;;19.83;9.90;;;8.60;99.90;;;;;;5033425;28;20033;-74
2022/12/20 00:20:28;;;;;;;25.23;11.32;;;8.60;99.90;;;;;;5033180;28;20083;-74
2022/12/20 00:22:55;;;;;;;18.83;10.07;;;8.60;99.90;;;;;;5031791;28;20466;-75
2022/12/20 00:25:21;;;;;;;21.65;10.32;;;8.60;99.90;;;;;;5032089;28;20060;-75
2022/12/20 00:27:47;;;;;;;19.63;10.80;;;8.60;99.90;;;;;;5031991;28;20030;-75
2022/12/20 00:30:14;;;;;;;22.38;11.05;;;8.70;99.90;;;;;;5032982;28;20043;-74
2022/12/20 00:32:40;;;;;;;21.73;11.50;;;8.60;99.90;;;;;;5032834;28;20037;-74
2022/12/20 00:35:06;;;;;;;19.73;10.43;;;8.60;99.90;;;;;;5033228;28;20126;-76
2022/12/20 00:37:33;;;;;;;22.58;11.13;;;8.60;99.90;;;;;;5031675;28;20468;-76
2022/12/20 00:39:58;;;;;;;20.20;10.15;;;8.60;99.90;;;;;;5032807;28;20104;-75
2022/12/20 00:42:24;;;;;;;26.50;10.05;;;8.60;99.90;;;;;;5032650;28;20029;-75
2022/12/20 00:44:49;;;;;;;18.90;10.05;;;8.60;99.90;;;;;;5032675;28;20040;-74
2022/12/20 00:47:15;;;;;;;21.55;10.38;;;8.60;99.90;;;;;;5033249;28;20026;-75
2022/12/20 00:49:41;;;;;;;23.83;10.38;;;8.60;99.90;;;;;;5032626;28;20025;-75
2022/12/20 00:52:06;;;;;;;20.92;11.52;;;8.70;99.90;;;;;;5031472;28;20035;-75
2022/12/20 00:54:33;;;;;;;20.30;10.45;;;8.70;99.90;;;;;;5032154;28;20106;-75
2022/12/20 00:56:58;;;;;;;20.92;10.77;;;8.60;99.90;;;;;;5031361;28;20376;-74
2022/12/20 00:59:24;;;;;;;22.15;10.63;;;8.60;99.90;;;;;;5032337;28;20029;-74
2022/12/20 01:01:50;;;;;;;20.60;10.40;;;8.60;99.90;;;;;;5032724;28;20022;-74
2022/12/20 01:04:16;;;;;;;22.65;11.27;;;8.60;99.90;;;;;;5032382;28;20095;-75
2022/12/20 01:06:42;;;;;;;21.48;10.73;;;8.70;99.90;;;;;;5032302;28;20041;-74
2022/12/20 01:09:07;;;;;;;23.63;11.88;;;8.60;99.90;;;;;;5032190;28;20037;-75
2022/12/20 01:11:35;;;;;;;21.02;11.10;;;8.70;99.90;;;;;;5032273;28;20034;-74
2022/12/20 01:14:11;;;;;;;20.02;9.77;;;8.60;99.90;;;;;;5032594;28;20060;-74
2022/12/20 01:16:46;;;;;;;21.80;10.30;;;8.60;99.90;;;;;;5032295;28;20091;-74
2022/12/20 01:19:14;;;;;;;22.98;9.88;;;8.60;99.90;;;;;;5031973;28;20092;-74
2022/12/20 01:21:43;;;;;;;21.05;10.27;;;8.60;99.90;;;;;;5031881;28;20040;-75
2022/12/20 01:24:13;;;;;;;18.02;10.38;;;8.60;99.90;;;;;;5032206;28;20140;-74
2022/12/20 01:26:39;;;;;;;16.98;9.13;;;8.60;99.90;;;;;;5031803;28;20029;-75
2022/12/20 01:29:05;;;;;;;19.67;10.65;;;8.70;99.90;;;;;;5032383;28;20332;-74
2022/12/20 01:31:31;;;;;;;20.98;10.85;;;8.60;99.90;;;;;;5032001;28;20048;-74
2022/12/20 01:33:58;;;;;;;22.42;10.13;;;8.70;99.90;;;;;;5031663;28;20128;-74
2022/12/20 01:36:26;;;;;;;20.85;10.50;;;8.60;99.90;;;;;;5031596;28;20034;-73
2022/12/20 01:39:00;;;;;;;22.92;10.48;;;8.70;99.90;;;;;;5031676;28;20087;-74
2022/12/20 01:41:28;;;;;;;21.02;10.45;;;8.70;99.90;;;;;;5031930;28;20032;-74
2022/12/20 01:43:58;;;;;;;21.67;9.70;;;8.80;99.90;;;;;;5030958;28;20032;-74
2022/12/20 01:46:27;;;;;;;22.35;10.05;;;8.80;99.90;;;;;;5031401;28;20087;-75
2022/12/20 01:49:01;;;;;;;21.25;9.77;;;9.00;99.90;;;;;;5031420;28;20486;-74
2022/12/20 01:51:29;;;;;;;21.17;9.57;;;8.90;99.90;;;;;;5031173;28;20371;-75
2022/12/20 01:54:02;;;;;;;;;;;8.90;99.90;;;;;;5030740;28;20125;-76
2022/12/20 01:56:28;;;;;;;22.83;10.43;;;8.90;99.90;;;;;;5031631;28;20232;-75
2022/12/20 01:58:54;;;;;;;19.23;10.65;;;8.90;99.90;;;;;;5031603;28;20021;-75
2022/12/20 02:01:22;;;;;;;18.92;9.35;;;8.90;99.90;;;;;;5031575;28;20025;-75
2022/12/20 02:03:50;;;;;;;20.52;10.57;;;8.90;99.90;;;;;;5031476;28;20032;-75
2022/12/20 02:06:20;;;;;;;;;;;9.20;99.90;;;;;;5030590;28;20039;-77
2022/12/20 02:08:48;;;;;;;16.10;8.32;;;9.00;99.90;;;;;;5030084;28;19916;-75
2022/12/20 02:11:48;;;;;;;20.45;9.55;;;9.00;99.90;;;;;;5031607;28;20556;-76
2022/12/20 02:14:38;;;;;;;22.90;10.32;;;9.00;99.90;;;;;;5030694;28;20111;-75
2022/12/20 02:17:11;;;;;;;17.60;9.10;;;9.10;99.90;;;;;;5030730;28;20080;-75
2022/12/20 02:20:16;;;;;;;16.80;9.35;;;9.10;99.90;;;;;;5029937;28;20290;-75
2022/12/20 02:23:25;;;;;;;18.30;9.93;;;9.10;99.90;;;;;;5006159;28;20037;-75
2022/12/20 02:26:17;;;;;;;19.80;9.73;;;9.20;99.90;;;;;;5031009;28;20037;-75
2022/12/20 02:29:01;;;;;;;17.17;9.25;;;9.20;99.90;;;;;;5030821;28;20033;-74
2022/12/20 02:31:36;;;;;;;19.38;9.93;;;9.20;99.90;;;;;;5030909;28;20471;-74
2022/12/20 02:34:03;;;;;;;19.15;10.13;;;9.30;99.90;;;;;;5030898;28;20048;-75
2022/12/20 02:36:29;;;;;;;16.58;9.02;;;9.30;99.90;;;;;;5016865;28;20107;-77
2022/12/20 02:38:54;;;;;;;17.95;9.57;;;9.30;99.90;;;;;;5011048;28;20022;-78
2022/12/20 02:41:35;;;;;;;19.23;10.05;;;9.30;99.90;;;;;;5011611;28;20026;-76
2022/12/20 02:47:00;;;;;;;18.90;9.38;;;9.40;99.90;;;;;;5012875;28;20135;-76
2022/12/20 02:49:31;;;;;;;20.10;9.88;;;9.30;99.90;;;;;;5015109;28;20034;-77
2022/12/20 02:52:00;;;;;;;20.27;9.15;;;9.40;99.90;;;;;;5014972;28;20029;-76
2022/12/20 02:54:27;;;;;;;19.17;9.57;;;9.40;99.90;;;;;;5014768;28;20065;-76
2022/12/20 02:57:07;;;;;;;20.73;9.43;;;9.40;99.90;;;;;;5013659;28;20052;-75
2022/12/20 02:59:41;;;;;;;18.30;9.43;;;9.50;99.90;;;;;;5013871;28;20033;-77
2022/12/20 03:02:08;;;;;;;16.45;8.73;;;9.50;99.90;;;;;;5014182;28;20022;-75
2022/12/20 03:04:38;;;;;;;18.55;8.95;;;9.40;99.90;;;;;;5014731;28;20038;-76
2022/12/20 03:07:07;;;;;;;18.60;9.20;;;9.50;99.90;;;;;;5013537;28;20494;-76
2022/12/20 03:09:36;;;;;;;19.05;9.43;;;9.50;99.90;;;;;;5014483;28;20486;-76
2022/12/20 03:12:02;;;;;;;21.00;9.90;;;9.50;99.90;;;;;;5014153;28;20117;-74
2022/12/20 03:14:28;;;;;;;19.60;9.25;;;9.50;99.90;;;;;;5014656;28;20033;-76
2022/12/20 03:16:54;;;;;;;19.13;9.73;;;9.50;99.90;;;;;;5014119;28;20153;-75
2022/12/20 03:19:19;;;;;;;15.85;8.63;;;9.60;99.90;;;;;;5014539;28;20037;-75
2022/12/20 03:21:45;;;;;;;16.63;8.90;;;9.50;99.90;;;;;;5013233;28;20034;-75
2022/12/20 03:24:12;;;;;;;18.20;9.30;;;9.70;99.90;;;;;;5014361;28;20033;-75
2022/12/20 03:26:38;;;;;;;19.00;9.73;;;9.60;99.90;;;;;;5013237;28;20029;-77
2022/12/20 03:29:04;;;;;;;16.80;9.05;;;9.60;99.90;;;;;;5014705;28;20452;-75
2022/12/20 03:31:31;;;;;;;18.73;9.25;;;9.60;99.90;;;;;;5014192;28;20132;-76
2022/12/20 03:33:56;;;;;;;18.13;9.18;;;9.60;99.90;;;;;;5014051;28;20517;-75
2022/12/20 03:36:22;;;;;;;20.40;9.52;;;9.60;99.90;;;;;;5014343;28;20030;-76
2022/12/20 03:38:52;;;;;;;18.63;9.63;;;9.60;99.90;;;;;;5013003;28;20494;-76
2022/12/20 03:41:20;;;;;;;15.25;7.78;;;9.60;99.90;;;;;;5013419;28;20092;-75
2022/12/20 03:43:47;;;;;;;16.98;9.30;;;9.60;99.90;;;;;;5013049;28;20108;-76
2022/12/20 03:46:13;;;;;;;26.25;10.20;;;9.60;99.90;;;;;;5013078;28;20098;-76
2022/12/20 03:48:38;;;;;;;19.60;9.48;;;9.60;99.90;;;;;;5014270;28;20117;-76
2022/12/20 03:51:04;;;;;;;19.20;9.75;;;9.70;99.90;;;;;;5009780;28;20025;-78
2022/12/20 03:53:30;;;;;;;18.40;9.10;;;9.60;99.90;;;;;;5023996;28;20352;-76
2022/12/20 03:55:56;;;;;;;19.48;8.88;;;9.70;99.90;;;;;;5013614;28;20464;-76
2022/12/20 03:58:22;;;;;;;16.90;8.55;;;9.70;99.90;;;;;;5024887;28;20045;-75
2022/12/20 04:00:47;;;;;;;14.82;7.85;;;9.60;99.90;;;;;;5013765;28;20037;-75
2022/12/20 04:03:15;;;;;;;13.50;7.47;;;9.60;99.90;;;;;;5013917;28;20049;-76
2022/12/20 04:05:41;;;;;;;;;;;9.60;99.90;;;;;;5014488;28;20092;-76
2022/12/20 04:08:07;;;;;;;17.35;8.93;;;9.60;99.90;;;;;;5014005;28;20209;-77
2022/12/20 04:11:14;;;;;;;17.05;8.65;;;9.60;99.90;;;;;;5013699;28;20041;-77
2022/12/20 04:13:18;;;;;;;17.35;8.32;;;9.60;99.90;;;;;;5013108;28;20455;-74
2022/12/20 04:15:44;;;;;;;20.75;9.20;;;9.60;99.90;;;;;;5013448;28;20038;-76
2022/12/20 04:18:09;;;;;;;17.65;8.70;;;9.60;99.90;;;;;;5013441;28;20409;-77
2022/12/20 04:20:35;;;;;;;18.00;9.50;;;9.60;99.90;;;;;;5012169;28;20030;-76
2022/12/20 04:23:01;;;;;;;15.63;9.32;;;9.60;99.90;;;;;;5012759;28;20041;-75
2022/12/20 04:25:26;;;;;;;20.75;9.43;;;9.60;99.90;;;;;;5012314;28;20088;-76
2022/12/20 04:27:52;;;;;;;17.25;8.55;;;9.60;99.90;;;;;;5012169;28;20105;-76
2022/12/20 04:30:18;;;;;;;19.23;9.98;;;9.60;99.90;;;;;;5012371;28;20033;-75
2022/12/20 04:32:44;;;;;;;16.80;8.88;;;9.60;99.90;;;;;;5011582;28;20026;-75
2022/12/20 04:35:10;;;;;;;17.05;9.50;;;9.70;99.90;;;;;;5013767;28;20045;-76
2022/12/20 04:37:35;;;;;;;20.48;9.27;;;9.70;99.90;;;;;;5012892;28;20113;-75
2022/12/20 04:40:01;;;;;;;23.80;10.07;;;9.90;99.90;;;;;;5012268;28;20129;-76
2022/12/20 04:42:27;;;;;;;21.73;9.75;;;9.70;99.90;;;;;;5013091;28;20026;-74
2022/12/20 04:44:53;;;;;;;16.83;9.52;;;9.70;99.90;;;;;;5011726;28;20041;-74
2022/12/20 04:47:18;;;;;;;17.55;9.32;;;9.80;99.90;;;;;;5013300;28;20516;-76
2022/12/20 04:49:44;;;;;;;16.85;9.13;;;9.80;99.90;;;;;;5011669;28;20034;-75
2022/12/20 04:54:54;;;;;;;15.95;9.38;;;9.80;99.90;;;;;;5012671;28;20044;-76
2022/12/20 04:57:19;;;;;;;19.52;9.63;;;9.80;99.90;;;;;;5012454;28;20026;-77
2022/12/20 04:59:45;;;;;;;18.38;9.60;;;9.90;99.90;;;;;;5011505;28;20116;-78
2022/12/20 05:02:11;;;;;;;19.75;9.02;;;9.90;99.90;;;;;;5012820;28;20033;-76
2022/12/20 05:04:36;;;;;;;15.23;8.40;;;9.90;99.90;;;;;;5011208;28;20038;-75
2022/12/20 05:07:02;;;;;;;18.05;8.77;;;9.90;99.90;;;;;;5012481;28;20357;-77
2022/12/20 05:09:28;;;;;;;16.55;9.60;;;9.90;99.90;;;;;;5011963;28;20065;-77
2022/12/20 05:11:53;;;;;;;21.17;9.82;;;9.90;99.90;;;;;;5011069;28;20184;-76
2022/12/20 05:14:19;;;;;;;19.17;8.95;;;10.10;99.90;;;;;;5012343;28;20060;-77
2022/12/20 05:16:44;;;;;;;19.88;9.27;;;10.00;99.90;;;;;;5012691;28;20045;-77
2022/12/20 05:19:10;;;;;;;17.77;9.40;;;10.00;99.90;;;;;;5012547;28;20100;-78
2022/12/20 05:27:05;;;;;;;19.75;9.73;;;10.00;99.90;;;;;;5012267;28;20045;-78
2022/12/20 05:29:30;;;;;;;18.77;9.77;;;9.90;99.90;;;;;;5012119;28;20034;-78
2022/12/20 05:31:56;;;;;;;16.42;8.45;;;10.00;99.90;;;;;;5011412;28;20363;-76
2022/12/20 05:34:22;;;;;;;20.75;9.85;;;9.90;99.90;;;;;;5011912;28;20284;-78
2022/12/20 05:36:47;;;;;;;17.73;9.73;;;10.00;99.90;;;;;;5019480;28;20168;-78
2022/12/20 05:39:13;;;;;;;18.45;9.27;;;10.00;99.90;;;;;;5010690;28;20080;-76
2022/12/20 05:41:39;;;;;;;22.45;10.13;;;9.90;99.90;;;;;;5011591;28;20029;-76
2022/12/20 05:44:05;;;;;;;20.55;9.73;;;9.90;99.90;;;;;;5012343;28;20058;-76
2022/12/20 05:46:31;;;;;;;19.48;10.18;;;9.90;99.90;;;;;;5010637;28;20068;-76
2022/12/20 05:48:57;;;;;;;18.85;9.57;;;10.00;99.90;;;;;;5010042;28;20030;-76
2022/12/20 05:51:22;;;;;;;18.73;8.90;;;9.90;99.90;;;;;;5011536;28;20048;-74
2022/12/20 05:53:48;;;;;;;23.73;9.82;;;10.00;99.90;;;;;;5010707;28;20046;-76
2022/12/20 05:56:14;;;;;;;18.63;9.30;;;10.00;99.90;;;;;;5012309;28;20456;-76
2022/12/20 05:58:40;;;;;;;16.60;8.98;;;9.90;99.90;;;;;;5011681;28;20040;-76
2022/12/20 06:01:07;;;;;;;18.20;10.27;;;9.90;99.90;;;;;;5020710;28;20026;-77
2022/12/20 06:03:33;;;;;;;18.25;9.13;;;9.90;99.90;;;;;;5011515;28;20095;-75
2022/12/20 06:05:58;;;;;;;23.33;9.68;;;9.90;99.90;;;;;;5011656;28;20029;-74
2022/12/20 06:08:24;;;;;;;19.48;9.98;;;10.00;99.90;;;;;;5011700;28;20029;-76
2022/12/20 06:10:50;;;;;;;20.05;10.07;;;10.00;99.90;;;;;;5011948;28;20478;-75
2022/12/20 06:13:17;;;;;;;19.55;8.98;;;10.00;99.90;;;;;;5010711;28;20069;-76
2022/12/20 06:15:43;;;;;;;17.65;9.00;;;10.20;99.90;;;;;;5011253;28;20103;-76
2022/12/20 06:18:10;;;;;;;16.38;9.32;;;10.00;99.90;;;;;;5011277;28;20455;-74
2022/12/20 06:20:36;;;;;;;21.30;9.98;;;10.00;99.90;;;;;;5010033;28;20371;-74
2022/12/20 06:23:02;;;;;;;21.50;10.23;;;10.00;99.90;;;;;;5011380;28;20376;-73
2022/12/20 06:25:29;;;;;;;16.90;9.55;;;10.10;99.90;;;;;;5023990;28;20371;-74
2022/12/20 06:27:55;;;;;;;20.45;9.95;;;10.10;99.90;;;;;;5010951;28;20030;-76
2022/12/20 06:30:21;;;;;;;18.13;10.07;;;10.20;99.90;;;;;;5011005;28;20037;-76
2022/12/20 06:32:47;;;;;;;17.92;9.75;;;10.10;99.90;;;;;;5010971;28;20058;-74
2022/12/20 06:35:13;;;;;;;19.00;10.07;;;10.10;99.90;;;;;;5010499;28;20139;-75
2022/12/20 06:37:40;;;;;;;20.15;9.70;;;10.20;99.90;;;;;;5011082;28;20030;-75
2022/12/20 06:40:09;;;;;;;17.45;9.43;;;10.10;99.90;;;;;;5010910;28;20085;-77
2022/12/20 06:42:34;;;;;;;18.95;10.07;;;10.20;99.90;;;;;;5010897;28;20415;-75
2022/12/20 06:45:00;;;;;;;19.27;10.20;;;10.20;99.90;;;;;;5009746;28;20030;-78
2022/12/20 06:47:25;;;;;;;17.08;9.10;;;10.20;99.90;;;;;;5009599;28;20118;-78
2022/12/20 06:49:51;;;;;;;15.77;9.07;;;10.20;99.90;;;;;;5011440;28;20040;-76
2022/12/20 06:52:17;;;;;;;18.73;9.75;;;10.20;99.90;;;;;;5009850;28;20108;-79
2022/12/20 06:54:43;;;;;;;23.45;10.05;;;10.30;99.90;;;;;;5010570;28;20041;-76
2022/12/20 06:57:09;;;;;;;21.67;9.75;;;10.30;99.90;;;;;;5009957;28;20065;-78
2022/12/20 06:59:34;;;;;;;23.27;9.88;;;10.50;99.90;;;;;;5027171;28;20025;-75
2022/12/20 07:02:00;;;;;;;17.23;10.05;;;10.30;99.90;;;;;;5031190;28;20013;-75
2022/12/20 07:04:26;;;;;;;18.10;9.38;;;10.30;99.90;;;;;;5030525;28;20490;-75
2022/12/20 07:06:52;;;;;;;19.52;9.77;;;10.30;99.90;;;;;;5030316;28;20476;-73
2022/12/20 07:09:17;;;;;;;21.15;9.70;;;10.40;99.90;;;;;;5030287;28;20029;-74
2022/12/20 07:11:43;;;;;;;17.90;9.48;;;10.30;99.90;;;;;;5030530;28;20025;-75
2022/12/20 07:14:09;;;;;;;19.08;9.48;;;10.30;99.90;;;;;;5029796;28;20045;-76
2022/12/20 07:16:36;;;;;;;19.25;9.80;;;10.60;99.90;;;;;;5029152;28;20112;-72
2022/12/20 07:19:02;;;;;;;16.58;9.35;;;10.40;99.90;;;;;;5030346;28;20117;-75
2022/12/20 07:21:28;;;;;;;17.08;9.27;;;10.40;99.90;;;;;;5030499;28;20037;-74
2022/12/20 07:23:54;;;;;;;15.50;8.60;;;10.30;99.90;;;;;;5030546;28;20147;-74
2022/12/20 07:26:20;;;;;;;22.05;9.10;;;10.30;99.90;;;;;;5031198;28;20013;-74
2022/12/20 07:28:46;;;;;;;15.57;8.50;;;10.30;99.90;;;;;;5030409;28;20391;-74
2022/12/20 07:31:12;;;;;;;20.63;9.30;;;10.40;99.90;;;;;;5029224;28;20083;-74
2022/12/20 07:33:38;;;;;;;14.55;8.60;;;10.30;99.90;;;;;;5032725;28;20036;-73
2022/12/20 07:36:06;;;;;;;23.17;11.75;;;10.40;99.90;;;;;;5034460;28;20087;-75
2022/12/20 07:38:34;;;;;;;18.75;9.10;;;10.40;99.90;;;;;;5033084;28;20033;-75
2022/12/20 07:41:12;;;;;;;14.50;8.27;;;10.40;99.90;;;;;;5034468;28;20087;-75
2022/12/20 07:43:38;;;;;;;14.52;8.23;;;10.40;99.90;;;;;;5034478;28;20090;-75
2022/12/20 07:46:05;;;;;;;16.08;8.40;;;10.50;99.90;;;;;;5033899;28;20112;-74
2022/12/20 07:48:31;;;;;;;16.65;8.43;;;10.40;99.90;;;;;;5033782;28;20041;-74
2022/12/20 07:51:02;;;;;;;16.48;8.38;;;10.40;99.90;;;;;;5033411;28;20025;-73
2022/12/20 07:53:29;;;;;;;16.42;8.38;;;10.40;99.90;;;;;;5034045;28;20025;-74
2022/12/20 07:55:57;;;;;;;20.05;9.27;;;10.50;99.90;;;;;;5032910;28;20116;-73
2022/12/20 07:58:23;;;;;;;18.33;8.65;;;10.50;99.90;;;;;;5033728;28;20109;-75
2022/12/20 08:00:50;;;;;;;18.80;8.80;;;10.60;99.90;;;;;;5033251;28;20112;-73
2022/12/20 08:03:22;;;;;;;18.60;8.52;;;10.50;99.90;;;;;;5033261;28;20033;-73
2022/12/20 08:05:52;;;;;;;15.82;8.88;;;10.60;99.90;;;;;;5032102;28;20034;-75
2022/12/20 08:08:18;;;;;;;19.38;8.70;;;10.50;99.90;;;;;;5033428;28;20025;-75
2022/12/20 08:10:45;;;;;;;15.13;8.43;;;10.50;99.90;;;;;;5033253;28;20053;-74
2022/12/20 08:13:11;;;;;;;20.83;9.38;;;10.50;99.90;;;;;;5031767;28;20089;-75
2022/12/20 08:15:37;;;;;;;15.13;8.50;;;10.50;99.90;;;;;;5031625;28;20037;-76
2022/12/20 08:18:05;;;;;;;17.70;8.82;;;10.60;99.90;;;;;;5031685;28;20114;-73
2022/12/20 08:20:30;;;;;;;17.45;9.10;;;10.60;99.90;;;;;;5033115;28;20087;-75
2022/12/20 08:22:56;;;;;;;15.95;8.52;;;10.60;99.90;;;;;;5033428;28;20325;-76
2022/12/20 08:25:22;;;;;;;15.82;8.68;;;10.80;99.90;;;;;;5032839;28;20036;-78
2022/12/20 08:27:48;;;;;;;20.70;9.18;;;10.70;99.90;;;;;;5032702;28;20025;-75
2022/12/20 08:30:14;;;;;;;16.52;8.10;;;10.60;99.90;;;;;;5032988;28;20037;-76
2022/12/20 08:32:40;;;;;;;17.75;8.60;;;10.60;99.90;;;;;;5032842;28;20032;-75
2022/12/20 08:35:06;;;;;;;17.30;9.40;;;10.60;99.90;;;;;;5033208;28;20410;-75
2022/12/20 08:37:32;;;;;;;15.63;8.20;;;10.60;99.90;;;;;;5033130;28;20095;-74
2022/12/20 08:39:59;;;;;;;14.77;8.48;;;10.60;99.90;;;;;;5031609;28;20029;-74
2022/12/20 08:42:25;;;;;;;17.15;7.65;;;10.60;99.90;;;;;;5032661;28;20033;-74
2022/12/20 08:44:51;;;;;;;15.45;8.00;;;10.70;99.90;;;;;;5032458;28;20049;-74
2022/12/20 08:47:17;;;;;;;16.92;8.70;;;10.80;99.90;;;;;;5033113;28;20134;-74
2022/12/20 08:49:42;;;;;;;14.18;7.95;;;10.70;99.90;;;;;;5032431;28;20025;-75
2022/12/20 08:52:08;;;;;;;17.27;7.65;;;10.70;99.90;;;;;;5031495;28;20049;-77
2022/12/20 08:54:34;;;;;;;14.02;8.32;;;10.70;99.90;;;;;;5032399;28;20506;-76
2022/12/20 08:56:59;;;;;;;15.40;8.10;;;10.80;99.90;;;;;;5032588;28;20120;-75
2022/12/20 08:59:25;;;;;;;13.38;7.63;;;10.80;99.90;;;;;;5032423;28;20108;-77
2022/12/20 09:01:52;;;;;;;15.38;7.78;;;10.80;99.90;;;;;;5033210;28;20526;-76
2022/12/20 09:04:18;;;;;;;15.25;7.72;;;10.90;99.90;;;;;;5031632;28;20359;-75
2022/12/20 09:06:43;;;;;;;15.77;8.05;;;10.90;99.90;;;;;;5032569;28;20037;-74
2022/12/20 09:09:09;;;;;;;16.38;8.05;;;10.80;99.90;;;;;;5032111;28;20033;-72
2022/12/20 09:11:35;;;;;;;12.88;7.80;;;10.80;99.90;;;;;;5032295;28;20236;-75
2022/12/20 09:14:00;;;;;;;15.07;6.90;;;10.90;99.90;;;;;;5032310;28;20049;-74
2022/12/20 09:16:29;;;;;;;13.25;7.22;;;10.90;99.90;;;;;;5032166;28;20094;-74
2022/12/20 09:18:56;;;;;;;13.60;6.55;;;10.90;99.90;;;;;;5031919;28;20040;-75
2022/12/20 09:21:22;;;;;;;13.50;6.88;;;10.90;99.90;;;;;;5031237;28;20195;-74
2022/12/20 09:23:52;;;;;;;14.63;7.05;;;10.90;99.90;;;;;;5032416;28;20034;-73
2022/12/20 09:26:20;;;;;;;12.13;6.78;;;10.90;99.90;;;;;;5032853;28;20021;-73
2022/12/20 09:28:47;;;;;;;18.75;8.40;;;10.90;99.90;;;;;;5031466;28;20336;-75
2022/12/20 09:31:19;;;;;;;13.73;6.28;;;10.90;99.90;;;;;;5032055;28;20411;-73
2022/12/20 09:33:45;;;;;;;17.25;7.05;;;11.00;99.90;;;;;;5031813;28;20041;-76
2022/12/20 09:36:16;;;;;;;14.60;6.88;;;11.10;99.90;;;;;;5031699;28;20033;-75
2022/12/20 09:38:43;;;;;;;11.50;6.60;;;11.00;99.90;;;;;;5031926;28;20068;-76
2022/12/20 09:41:24;;;;;;;15.85;6.95;;;11.00;99.90;;;;;;5032685;28;20053;-74
2022/12/20 09:43:50;;;;;;;13.65;7.00;;;11.00;99.90;;;;;;5032514;28;20045;-76
2022/12/20 09:46:17;;;;;;;12.13;6.35;;;11.10;99.90;;;;;;5031766;28;20475;-76
2022/12/20 09:48:43;;;;;;;12.00;6.88;;;11.20;99.90;;;;;;5030250;28;20041;-73
2022/12/20 09:51:08;;;;;;;10.63;6.20;;;11.10;99.90;;;;;;5031486;28;20053;-79
2022/12/20 09:53:43;;;;;;;12.10;6.15;;;11.30;99.90;;;;;;5030383;28;20073;-77
2022/12/20 09:56:22;;;;;;;14.57;6.30;;;11.10;99.90;;;;;;5030701;28;20473;-78
2022/12/20 09:59:12;;;;;;;14.32;5.97;;;11.20;99.90;;;;;;5031337;28;20034;-77
2022/12/20 10:01:41;;;;;;;10.63;5.72;;;11.20;99.90;;;;;;5030184;28;20025;-75
2022/12/20 10:04:17;;;;;;;15.25;6.38;;;11.20;99.90;;;;;;5031268;28;20352;-78
2022/12/20 10:06:55;;;;;;;10.35;5.38;;;11.20;99.90;;;;;;5031199;28;20029;-78
2022/12/20 10:09:28;;;;;;;13.20;6.03;;;11.30;99.90;;;;;;5030983;28;20041;-77
2022/12/20 10:12:20;;;;;;;12.82;6.18;;;11.50;99.90;;;;;;5029737;28;20034;-76
2022/12/20 10:15:04;;;;;;;10.30;5.70;;;11.30;99.90;;;;;;5029751;28;20041;-77
2022/12/20 10:17:37;;;;;;;10.93;6.25;;;11.30;99.90;;;;;;5029882;28;20030;-75
2022/12/20 10:20:31;;;;;;;11.10;5.88;;;11.40;99.90;;;;;;5032399;28;20018;-74
2022/12/20 10:23:36;;;;;;;9.52;5.82;;;11.40;99.90;;;;;;5030481;28;20045;-73
2022/12/20 10:26:08;;;;;;;9.40;5.57;;;11.50;99.90;;;;;;5029844;28;20120;-76
2022/12/20 10:28:35;;;;;;;9.23;5.32;;;11.60;99.90;;;;;;5029821;28;20108;-77
2022/12/20 10:31:03;;;;;;;12.25;6.15;;;11.70;99.90;;;;;;5030585;28;20057;-74
2022/12/20 10:33:30;;;;;;;11.85;5.55;;;11.70;99.70;;;;;;5030684;28;20045;-74
2022/12/20 10:36:16;;;;;;;11.27;5.82;;;11.70;99.70;;;;;;5030503;28;20045;-75
2022/12/20 10:38:49;;;;;;;13.63;5.47;;;11.70;99.70;;;;;;5029608;28;20041;-76
2022/12/20 10:41:22;;;;;;;8.98;5.57;;;11.80;99.60;;;;;;5031351;28;20029;-76
2022/12/20 10:43:55;;;;;;;10.73;4.75;;;11.80;99.60;;;;;;5029918;28;20041;-74
2022/12/20 10:46:21;;;;;;;11.07;4.82;;;11.80;99.70;;;;;;5030666;28;20041;-76
2022/12/20 10:48:49;;;;;;;10.30;5.35;;;11.80;99.60;;;;;;5029822;28;20029;-77
2022/12/20 10:51:17;;;;;;;16.08;6.47;;;11.80;99.60;;;;;;5030684;28;20427;-77
2022/12/20 10:53:56;;;;;;;10.15;5.00;;;11.80;99.50;;;;;;5030686;28;20440;-78
2022/12/20 10:56:27;;;;;;;12.85;5.25;;;11.90;99.60;;;;;;5029319;28;20036;-80
2022/12/20 10:59:14;;;;;;;15.13;5.93;;;12.00;99.60;;;;;;5032511;28;20105;-77
2022/12/20 11:01:44;;;;;;;7.50;4.40;;;11.80;99.60;;;;;;5031541;28;20022;-75
2022/12/20 11:04:34;;;;;;;8.77;4.75;;;11.90;99.60;;;;;;5032951;28;20037;-80
2022/12/20 11:07:01;;;;;;;9.07;4.80;;;11.80;99.60;;;;;;5031898;28;20030;-78
2022/12/20 11:09:37;;;;;;;11.32;5.22;;;11.90;99.60;;;;;;5036763;28;20195;-79
2022/12/20 11:12:15;;;;;;;8.88;4.95;;;11.80;99.60;;;;;;5036887;28;20036;-76
2022/12/20 11:14:43;;;;;;;11.82;5.13;;;11.90;99.60;;;;;;5035949;28;22068;-78
2022/12/20 11:17:27;;;;;;;13.65;5.50;;;12.00;99.60;;;;;;5036001;28;20021;-77
2022/12/20 11:20:27;;;;;;;11.27;5.25;;;12.00;99.60;;;;;;5035376;28;20368;-77
2022/12/20 11:23:07;;;;;;;10.82;5.05;;;12.00;99.40;;;;;;5035437;28;20133;-76
2022/12/20 11:25:39;;;;;;;8.77;5.28;;;12.00;99.40;;;;;;5034103;28;20076;-76
2022/12/20 11:28:28;;;;;;;9.25;5.22;;;12.00;99.40;;;;;;5034256;28;20113;-77
2022/12/20 11:31:13;;;;;;;6.97;4.32;;;12.00;99.30;;;;;;5033654;28;20088;-76
2022/12/20 11:33:48;;;;;;;9.20;5.00;;;12.10;99.50;;;;;;5033849;28;20033;-77
2022/12/20 11:36:39;;;;;;;8.43;4.60;;;12.10;99.30;;;;;;5033869;28;20522;-77
2022/12/20 11:39:09;;;;;;;11.55;5.60;;;12.10;99.20;;;;;;5034004;28;20038;-82
2022/12/20 11:41:41;;;;;;;6.80;4.13;;;12.20;99.20;;;;;;5033947;28;20075;-78
2022/12/20 11:44:46;;;;;;;8.48;4.68;;;12.20;99.20;;;;;;5032947;28;20029;-78
2022/12/20 11:47:31;;;;;;;10.45;4.53;;;12.10;99.00;;;;;;5033545;28;20037;-77
2022/12/20 11:50:25;;;;;;;7.40;4.28;;;12.20;99.10;;;;;;5033547;28;20079;-77
2022/12/20 11:52:59;;;;;;;8.10;4.55;;;12.20;99.20;;;;;;5033741;28;20056;-81
2022/12/20 11:55:32;;;;;;;8.52;4.15;;;12.20;99.10;;;;;;5033461;28;20140;-76
2022/12/20 11:58:19;;;;;;;6.97;4.07;;;12.20;99.00;;;;;;5033197;28;20025;-75
2022/12/20 12:01:09;;;;;;;11.45;4.63;;;12.20;99.00;;;;;;5033257;28;20053;-77
2022/12/20 12:03:35;;;;;;;11.93;4.80;;;12.30;99.10;;;;;;5033279;28;20069;-75
2022/12/20 12:06:10;;;;;;;10.07;4.78;;;12.20;99.00;;;;;;5033341;28;20030;-77
2022/12/20 12:08:42;;;;;;;8.25;3.88;;;12.30;99.00;;;;;;5032074;28;20328;-77
2022/12/20 12:11:42;;;;;;;6.47;4.25;;;12.30;99.00;;;;;;5033362;28;20104;-88
2022/12/20 12:14:17;;;;;;;12.70;4.75;;;12.30;99.00;;;;;;5028335;28;20076;-78
2022/12/20 12:16:49;;;;;;;8.05;4.20;;;12.30;99.00;;;;;;5033715;28;20029;-76
2022/12/20 12:19:16;;;;;;;5.85;3.50;;;12.30;99.00;;;;;;5031052;28;20041;-76
2022/12/20 12:22:04;;;;;;;8.07;3.50;;;12.30;99.00;;;;;;5032218;28;20030;-78
2022/12/20 12:24:41;;;;;;;6.60;3.30;;;12.30;99.10;;;;;;5032997;28;20128;-81
2022/12/20 12:27:18;;;;;;;9.25;4.35;;;12.30;99.10;;;;;;5032307;28;20379;-78
2022/12/20 12:29:44;;;;;;;8.65;4.38;;;12.20;98.90;;;;;;5032229;28;20057;-77
2022/12/20 12:32:23;;;;;;;10.68;3.95;;;12.20;99.00;;;;;;5032236;28;20076;-78
2022/12/20 12:35:42;;;;;;;15.38;4.10;;;12.20;98.80;;;;;;5032800;28;20034;-77
2022/12/20 12:38:35;;;;;;;7.32;3.85;;;12.30;98.80;;;;;;5031256;28;20049;-81
2022/12/20 12:41:39;;;;;;;6.30;3.45;;;12.30;98.80;;;;;;5033630;28;20022;-81
2022/12/20 12:44:31;;;;;;;8.73;4.15;;;12.30;98.90;;;;;;5034478;28;20155;-82
2022/12/20 12:47:10;;;;;;;9.45;4.00;;;12.30;98.80;;;;;;5033096;28;20034;-81
2022/12/20 12:49:38;;;;;;;5.93;3.50;;;12.30;98.70;;;;;;5032411;28;20464;-81
2022/12/20 12:52:04;;;;;;;5.88;3.65;;;12.40;98.80;;;;;;5031453;28;20029;-80
2022/12/20 12:54:39;;;;;;;5.85;3.10;;;12.40;98.90;;;;;;5031140;28;20428;-78
2022/12/20 12:57:14;;;;;;;9.30;4.07;;;12.30;98.80;;;;;;5032704;28;20448;-79
2022/12/20 12:59:44;;;;;;;7.68;3.70;;;12.40;98.90;;;;;;5032151;28;20083;-80
2022/12/20 13:02:13;;;;;;;7.18;3.53;;;12.30;98.80;;;;;;5032907;28;20025;-78
2022/12/20 13:04:57;;;;;;;6.28;3.42;;;12.40;98.90;;;;;;5030858;28;20037;-78
2022/12/20 13:07:32;;;;;;;6.82;3.60;;;12.40;98.90;;;;;;5032441;28;20029;-76